Time;durP1;ratioP1;P1;durP2;ratioP2;P2;SDS_P1;SDS_P2;PMS_P1;PMS_P2;Temp;Humidity;BMP_temperature;BMP_pressure;BME280_temperature;BME280_humidity;BME280_pressure;Samples;Min_cycle;Max_cycle;Signal;HPM_P1;HPM_P2
2022/01/23 00:01:33;;;;;;;15.50;9.00;;;10.10;58.40;;;;;;5070610;28;20499;-86
2022/01/23 00:04:02;;;;;;;12.97;7.40;;;9.90;59.40;;;;;;5072844;28;20598;-85
2022/01/23 00:06:29;;;;;;;15.53;8.47;;;9.90;59.80;;;;;;5070879;28;20470;-86
2022/01/23 00:08:56;;;;;;;15.00;8.30;;;10.00;58.90;;;;;;5077202;28;20447;-86
2022/01/23 00:11:26;;;;;;;18.23;8.43;;;10.00;58.50;;;;;;5072261;28;20486;-86
2022/01/23 00:19:23;;;;;;;12.10;7.23;;;10.10;58.40;;;;;;5071249;28;20807;-86
2022/01/23 00:21:52;;;;;;;15.03;7.60;;;10.20;58.30;;;;;;5075888;28;20452;-86
2022/01/23 00:32:34;;;;;;;14.60;7.80;;;10.20;58.30;;;;;;5053599;28;20918;-86
2022/01/23 00:35:02;;;;;;;16.10;8.80;;;10.20;58.30;;;;;;5071192;28;20571;-86
2022/01/23 00:37:30;;;;;;;12.87;7.60;;;10.30;58.50;;;;;;5068477;28;20518;-86
2022/01/23 00:39:57;;;;;;;16.07;8.30;;;10.30;58.10;;;;;;5056890;28;20811;-86
2022/01/23 00:42:24;;;;;;;12.67;7.00;;;10.40;58.00;;;;;;5069461;28;20584;-86
2022/01/23 00:44:58;;;;;;;17.50;8.67;;;10.40;57.80;;;;;;5070786;28;21043;-86
2022/01/23 00:47:25;;;;;;;18.63;9.93;;;10.40;57.80;;;;;;5050912;28;20828;-86
2022/01/23 00:49:52;;;;;;;16.73;8.47;;;10.40;57.80;;;;;;5067379;28;20492;-86
2022/01/23 00:52:20;;;;;;;14.90;8.50;;;10.40;58.00;;;;;;5074481;28;20736;-86
2022/01/23 00:54:47;;;;;;;18.53;8.27;;;10.40;57.90;;;;;;5074658;28;20463;-86
2022/01/23 00:57:14;;;;;;;14.00;7.03;;;10.40;57.70;;;;;;5053722;28;20457;-85
2022/01/23 00:59:41;;;;;;;12.57;7.50;;;10.30;57.40;;;;;;5061595;28;20542;-86
2022/01/23 01:02:08;;;;;;;15.77;8.10;;;10.30;57.50;;;;;;5072274;28;20559;-86
2022/01/23 01:04:35;;;;;;;14.03;8.10;;;10.40;57.50;;;;;;5070333;28;20476;-86
2022/01/23 01:07:02;;;;;;;11.83;6.80;;;10.40;57.50;;;;;;5069019;28;20453;-84
2022/01/23 01:09:32;;;;;;;14.67;7.90;;;10.40;57.40;;;;;;5036618;28;20878;-86
2022/01/23 01:12:03;;;;;;;11.30;6.73;;;10.30;57.40;;;;;;5056787;28;20558;-87
2022/01/23 01:14:58;;;;;;;11.40;7.03;;;10.30;57.60;;;;;;5060154;28;20486;-86
2022/01/23 01:17:35;;;;;;;12.83;6.57;;;10.30;57.40;;;;;;5052370;28;20471;-86
2022/01/23 01:31:11;;;;;;;14.87;7.73;;;10.20;57.30;;;;;;5069432;28;20502;-86
2022/01/23 01:33:45;;;;;;;13.57;7.50;;;10.20;57.30;;;;;;5050326;28;20481;-86
2022/01/23 01:36:24;;;;;;;11.03;6.70;;;10.20;57.40;;;;;;5054499;28;20531;-86
2022/01/23 01:38:54;;;;;;;10.67;6.20;;;10.10;57.40;;;;;;5060300;28;20464;-86
2022/01/23 01:41:24;;;;;;;11.27;6.13;;;10.10;57.30;;;;;;5054584;28;20990;-86
2022/01/23 01:43:53;;;;;;;11.50;6.70;;;10.10;57.50;;;;;;5048572;28;20475;-86
2022/01/23 01:46:30;;;;;;;12.80;6.70;;;10.10;57.50;;;;;;5059479;28;20471;-86
2022/01/23 01:48:59;;;;;;;10.93;6.27;;;10.10;57.50;;;;;;5058226;28;20468;-86
2022/01/23 01:51:31;;;;;;;13.20;7.43;;;10.10;57.60;;;;;;5070887;28;20456;-86
2022/01/23 01:54:12;;;;;;;11.97;6.60;;;10.00;57.40;;;;;;5052776;28;20598;-86
2022/01/23 01:56:49;;;;;;;10.87;7.10;;;10.00;57.40;;;;;;5053528;28;20455;-86
2022/01/23 01:59:47;;;;;;;12.63;7.40;;;10.00;57.40;;;;;;5062657;28;20460;-86
2022/01/23 02:03:17;;;;;;;13.80;7.50;;;10.00;57.60;;;;;;5069416;28;20699;-87
2022/01/23 02:08:37;;;;;;;9.43;5.97;;;10.10;57.50;;;;;;5058699;28;20549;-86
2022/01/23 02:11:10;;;;;;;11.17;6.67;;;10.10;57.60;;;;;;5034143;28;20452;-86
2022/01/23 02:13:44;;;;;;;14.00;6.40;;;10.10;57.60;;;;;;5053927;28;20474;-85
2022/01/23 02:25:04;;;;;;;13.93;6.50;;;10.00;57.70;;;;;;5051853;28;20462;-87
2022/01/23 02:52:44;;;;;;;12.40;7.00;;;10.30;57.10;;;;;;5069558;28;21014;-86
2022/01/23 02:55:15;;;;;;;12.73;6.80;;;10.30;56.80;;;;;;5036724;28;20439;-86
2022/01/23 02:57:53;;;;;;;10.93;6.20;;;10.00;57.10;;;;;;5071827;28;21041;-86
2022/01/23 03:00:31;;;;;;;16.17;6.93;;;10.00;57.50;;;;;;5070886;28;20451;-86
2022/01/23 03:03:04;;;;;;;10.20;6.60;;;10.00;57.30;;;;;;5069637;28;20471;-86
2022/01/23 03:05:40;;;;;;;11.30;6.90;;;9.90;58.40;;;;;;5054050;28;20493;-86
2022/01/23 03:08:22;;;;;;;13.57;7.50;;;9.90;58.40;;;;;;5054723;28;20981;-86
2022/01/23 03:11:01;;;;;;;9.87;5.93;;;9.90;58.50;;;;;;5070799;28;20459;-86
2022/01/23 03:13:46;;;;;;;12.30;6.80;;;10.00;57.70;;;;;;5073812;28;20921;-86
2022/01/23 03:24:36;;;;;;;15.07;7.50;;;10.10;57.30;;;;;;5073818;28;20979;-86
2022/01/23 03:27:38;;;;;;;13.27;7.03;;;10.20;57.50;;;;;;5074914;28;20459;-86
2022/01/23 03:30:14;;;;;;;13.20;6.70;;;10.20;57.30;;;;;;5073473;28;20467;-86
2022/01/23 03:32:45;;;;;;;9.47;6.60;;;10.10;57.40;;;;;;5076343;28;21054;-86
2022/01/23 03:35:12;;;;;;;12.43;6.77;;;10.10;57.80;;;;;;5073225;28;20490;-86
2022/01/23 03:37:39;;;;;;;13.73;7.03;;;10.10;57.30;;;;;;5073360;28;20533;-86
2022/01/23 03:40:08;;;;;;;31.93;20.87;;;10.00;57.30;;;;;;5069020;28;21179;-86
2022/01/23 03:42:40;;;;;;;24.67;14.97;;;9.90;58.30;;;;;;5074479;28;20500;-86
2022/01/23 03:45:27;;;;;;;20.53;12.57;;;9.90;58.40;;;;;;5074215;28;20460;-86
2022/01/23 03:49:30;;;;;;;11.50;7.43;;;10.00;57.80;;;;;;5064368;28;20967;-87
2022/01/23 03:50:49;;;;;;;14.30;7.83;;;10.00;57.60;;;;;;5055983;28;20455;-86
2022/01/23 03:53:29;;;;;;;13.13;7.07;;;10.10;57.50;;;;;;5060423;28;21010;-86
2022/01/23 03:55:56;;;;;;;12.83;7.67;;;10.10;57.10;;;;;;5044580;28;20456;-86
2022/01/23 03:58:24;;;;;;;10.87;6.03;;;10.00;57.50;;;;;;5055981;28;20977;-86
2022/01/23 04:00:51;;;;;;;10.07;6.30;;;10.00;57.70;;;;;;5074664;28;20543;-86
2022/01/23 04:03:19;;;;;;;11.60;6.97;;;10.00;57.60;;;;;;5058138;28;20484;-86
2022/01/23 04:05:46;;;;;;;12.10;6.80;;;9.90;58.20;;;;;;5075145;28;20539;-86
2022/01/23 04:08:15;;;;;;;10.87;7.03;;;9.70;59.00;;;;;;5056297;28;20951;-86
2022/01/23 04:10:43;;;;;;;15.03;7.50;;;9.70;59.30;;;;;;5061333;28;20455;-86
2022/01/23 04:13:16;;;;;;;11.23;6.20;;;9.70;59.30;;;;;;5073707;28;20537;-86
2022/01/23 04:15:50;;;;;;;14.70;7.20;;;9.80;58.90;;;;;;5072964;28;20576;-86
2022/01/23 04:31:39;;;;;;;15.17;8.13;;;9.70;59.30;;;;;;5056008;28;20880;-86
2022/01/23 04:32:43;;;;;;;15.30;7.63;;;9.70;59.80;;;;;;5058774;28;20456;-86
2022/01/23 04:35:39;;;;;;;13.97;7.60;;;9.80;59.50;;;;;;5067016;28;20475;-86
2022/01/23 04:46:39;;;;;;;11.30;6.80;;;9.10;60.70;;;;;;5074133;28;20460;-86
2022/01/23 05:00:01;;;;;;;29.20;10.83;;;9.10;60.90;;;;;;5062252;28;20501;-87
2022/01/23 05:02:59;;;;;;;20.90;9.80;;;9.40;60.50;;;;;;5058852;28;21056;-87
2022/01/23 05:05:47;;;;;;;55.83;16.90;;;9.50;59.70;;;;;;5065789;28;20452;-86
2022/01/23 05:08:38;;;;;;;33.00;13.83;;;9.70;59.40;;;;;;5074611;28;20451;-86
2022/01/23 05:11:32;;;;;;;26.57;11.73;;;9.80;59.20;;;;;;5071741;28;20459;-86
2022/01/23 05:14:12;;;;;;;37.77;12.10;;;9.80;58.80;;;;;;5072695;28;20498;-87
2022/01/23 05:16:39;;;;;;;19.80;9.50;;;9.70;58.90;;;;;;5072247;28;20465;-87
2022/01/23 05:19:08;;;;;;;25.40;11.60;;;9.50;59.60;;;;;;5056320;28;20757;-86
2022/01/23 05:24:24;;;;;;;22.90;9.83;;;9.60;59.80;;;;;;5060621;28;20915;-85
2022/01/23 05:26:51;;;;;;;20.37;9.80;;;9.70;59.30;;;;;;5056117;28;20484;-86
2022/01/23 05:29:21;;;;;;;66.33;23.07;;;9.80;59.10;;;;;;5072629;28;20453;-87
2022/01/23 05:31:51;;;;;;;76.70;27.20;;;9.90;58.80;;;;;;5059159;28;20467;-86
2022/01/23 05:34:18;;;;;;;42.10;15.17;;;9.90;58.60;;;;;;5053078;28;20571;-86
2022/01/23 05:36:46;;;;;;;39.23;14.20;;;10.00;57.70;;;;;;5073937;28;20459;-87
2022/01/23 05:39:18;;;;;;;50.93;17.97;;;10.00;57.60;;;;;;5053246;28;20492;-86
2022/01/23 05:41:45;;;;;;;58.90;21.07;;;10.00;57.50;;;;;;5061935;28;20456;-86
2022/01/23 05:44:12;;;;;;;33.13;14.20;;;10.00;57.30;;;;;;5071496;28;20990;-87
2022/01/23 05:46:40;;;;;;;36.33;15.13;;;10.00;57.20;;;;;;5060901;28;20462;-86
2022/01/23 05:49:13;;;;;;;32.30;12.60;;;10.00;57.30;;;;;;5060060;28;20459;-86
2022/01/23 05:51:54;;;;;;;24.43;11.53;;;10.00;57.40;;;;;;5055174;28;20566;-86
2022/01/23 05:54:40;;;;;;;21.07;10.50;;;10.00;57.40;;;;;;5052994;28;20468;-86
2022/01/23 05:57:20;;;;;;;24.70;10.40;;;10.00;57.30;;;;;;5053304;28;20667;-84
2022/01/23 05:59:58;;;;;;;19.73;9.70;;;10.00;57.20;;;;;;5063735;28;20470;-86
2022/01/23 06:02:25;;;;;;;21.30;9.53;;;10.00;57.40;;;;;;5072161;28;21026;-86
2022/01/23 06:04:52;;;;;;;19.27;9.00;;;10.00;57.30;;;;;;5054027;28;20457;-86
2022/01/23 06:07:31;;;;;;;48.20;15.37;;;10.00;57.20;;;;;;5073073;28;20467;-87
2022/01/23 06:10:03;;;;;;;41.60;17.63;;;10.00;57.00;;;;;;5064431;28;20476;-86
2022/01/23 06:12:31;;;;;;;30.37;10.07;;;10.00;57.00;;;;;;5054556;28;20782;-86
2022/01/23 06:14:58;;;;;;;35.43;15.73;;;10.00;57.00;;;;;;5052736;28;20522;-86
2022/01/23 06:17:25;;;;;;;50.93;17.70;;;10.00;56.90;;;;;;5060289;28;20463;-86
2022/01/23 06:20:28;;;;;;;26.97;11.60;;;10.00;56.90;;;;;;5002386;28;20459;-86
2022/01/23 06:23:19;;;;;;;32.97;12.47;;;9.80;58.00;;;;;;5048265;28;20549;-86
2022/01/23 06:26:09;;;;;;;17.47;8.47;;;9.80;58.40;;;;;;5060906;28;20553;-86
2022/01/23 06:28:57;;;;;;;22.10;8.60;;;9.80;58.30;;;;;;5055734;28;20558;-86
2022/01/23 06:31:24;;;;;;;26.67;12.03;;;9.80;58.20;;;;;;5072112;28;21028;-86
2022/01/23 06:33:51;;;;;;;53.50;19.57;;;9.80;58.00;;;;;;5069348;28;20987;-86
2022/01/23 06:36:18;;;;;;;113.70;35.47;;;9.90;58.00;;;;;;5069722;28;20449;-86
2022/01/23 06:38:47;;;;;;;43.30;16.30;;;9.90;57.90;;;;;;5071148;28;20518;-87
2022/01/23 06:41:15;;;;;;;48.30;17.60;;;9.90;58.40;;;;;;5052837;28;20459;-86
2022/01/23 06:44:18;;;;;;;29.83;13.57;;;9.90;57.80;;;;;;4982110;28;20855;-86
2022/01/23 06:46:46;;;;;;;42.93;17.00;;;9.90;57.80;;;;;;5046744;28;20967;-85
2022/01/23 06:49:14;;;;;;;20.63;10.23;;;9.90;57.80;;;;;;5056181;28;20458;-85
2022/01/23 06:51:43;;;;;;;14.27;7.67;;;9.90;57.80;;;;;;5064208;28;20963;-85
2022/01/23 06:54:12;;;;;;;13.73;7.50;;;9.80;58.00;;;;;;5074855;28;20507;-86
2022/01/23 06:56:40;;;;;;;16.87;9.50;;;9.60;58.60;;;;;;5075607;28;20454;-86
2022/01/23 06:59:07;;;;;;;17.10;7.73;;;9.70;58.60;;;;;;5055436;28;20508;-86
2022/01/23 07:01:36;;;;;;;16.17;8.80;;;9.70;58.40;;;;;;5055049;28;20939;-85
2022/01/23 07:04:33;;;;;;;13.50;7.13;;;9.60;58.60;;;;;;5060397;28;21160;-86
2022/01/23 07:07:09;;;;;;;16.63;8.47;;;9.80;58.50;;;;;;5057902;28;21443;-86
2022/01/23 07:09:57;;;;;;;21.10;9.90;;;9.70;58.70;;;;;;5060529;28;20490;-86
2022/01/23 07:12:35;;;;;;;14.63;8.90;;;9.80;58.50;;;;;;5065586;28;20762;-86
2022/01/23 07:15:17;;;;;;;25.43;13.77;;;9.70;58.40;;;;;;5058029;28;20486;-86
2022/01/23 07:17:52;;;;;;;28.33;14.37;;;9.70;58.50;;;;;;5061384;28;20463;-87
2022/01/23 07:20:29;;;;;;;28.90;15.53;;;9.70;58.80;;;;;;5060131;28;20470;-86
2022/01/23 07:23:03;;;;;;;20.50;12.83;;;9.60;58.70;;;;;;5056031;28;20507;-86
2022/01/23 07:25:32;;;;;;;28.53;13.13;;;9.50;59.00;;;;;;5073524;28;20460;-86
2022/01/23 07:28:01;;;;;;;28.13;12.97;;;9.60;58.90;;;;;;5042466;28;20456;-86
2022/01/23 07:30:34;;;;;;;25.57;13.97;;;9.70;58.60;;;;;;5040391;28;20457;-86
2022/01/23 07:33:02;;;;;;;37.73;22.70;;;9.80;58.60;;;;;;5048680;28;20921;-86
2022/01/23 07:35:29;;;;;;;39.80;21.60;;;9.80;58.40;;;;;;5063342;28;20474;-86
2022/01/23 07:37:56;;;;;;;50.63;23.80;;;9.90;58.90;;;;;;5054755;28;20461;-86
2022/01/23 07:40:26;;;;;;;46.30;19.97;;;9.90;58.10;;;;;;5076492;28;20586;-86
2022/01/23 07:42:57;;;;;;;57.47;23.70;;;9.90;58.10;;;;;;5057826;28;21030;-86
2022/01/23 07:45:47;;;;;;;30.27;15.27;;;9.90;58.10;;;;;;5071175;28;20452;-86
2022/01/23 07:48:40;;;;;;;27.77;14.23;;;9.90;58.20;;;;;;5057532;28;20469;-86
2022/01/23 07:51:27;;;;;;;26.30;13.30;;;10.00;57.40;;;;;;5046406;28;20547;-86
2022/01/23 07:54:01;;;;;;;25.83;15.73;;;10.00;57.50;;;;;;5055697;28;20484;-86
2022/01/23 07:56:53;;;;;;;19.97;11.13;;;9.90;58.50;;;;;;5060023;28;20460;-86
2022/01/23 07:59:48;;;;;;;22.23;11.73;;;9.70;59.00;;;;;;5040363;28;20799;-86
2022/01/23 08:02:42;;;;;;;25.17;14.30;;;9.80;59.20;;;;;;5069363;28;20821;-86
2022/01/23 08:05:27;;;;;;;29.43;15.10;;;9.90;58.80;;;;;;5074282;28;20940;-86
2022/01/23 08:08:20;;;;;;;23.77;12.40;;;9.70;59.10;;;;;;5030202;28;20459;-85
2022/01/23 08:11:06;;;;;;;25.80;12.63;;;9.70;59.50;;;;;;5076525;28;20455;-86
2022/01/23 08:13:33;;;;;;;23.23;13.60;;;9.70;59.40;;;;;;5058205;28;20467;-86
2022/01/23 08:16:02;;;;;;;26.97;13.83;;;9.70;59.50;;;;;;5074221;28;20567;-86
2022/01/23 08:18:29;;;;;;;23.23;12.77;;;9.70;59.60;;;;;;5074866;28;21106;-86
2022/01/23 08:20:56;;;;;;;22.30;13.10;;;9.70;59.60;;;;;;5054255;28;20809;-86
2022/01/23 08:23:23;;;;;;;27.80;14.50;;;9.80;59.50;;;;;;5074021;28;20471;-84
2022/01/23 08:25:50;;;;;;;24.13;12.60;;;9.90;59.10;;;;;;5071893;28;20448;-86
2022/01/23 08:28:17;;;;;;;49.50;22.80;;;9.90;59.30;;;;;;5074215;28;20534;-86
2022/01/23 08:30:44;;;;;;;46.37;25.67;;;9.80;59.40;;;;;;5076558;28;20455;-86
2022/01/23 08:33:12;;;;;;;36.40;19.17;;;9.70;59.80;;;;;;5054240;28;20491;-86
2022/01/23 08:35:42;;;;;;;31.97;15.30;;;9.80;60.70;;;;;;5071427;28;20474;-85
2022/01/23 08:38:09;;;;;;;29.83;15.47;;;9.80;59.90;;;;;;5075333;28;20455;-86
2022/01/23 08:40:48;;;;;;;35.00;18.13;;;9.90;59.70;;;;;;5056839;28;20460;-85
2022/01/23 08:43:17;;;;;;;34.30;17.83;;;9.90;59.60;;;;;;5058219;28;20470;-87
2022/01/23 08:45:46;;;;;;;28.67;15.93;;;9.70;59.90;;;;;;5073079;28;20991;-86
2022/01/23 08:48:14;;;;;;;35.33;17.50;;;9.60;60.60;;;;;;5054929;28;20448;-87
2022/01/23 08:50:41;;;;;;;41.30;21.10;;;9.70;60.10;;;;;;5072589;28;20717;-86
2022/01/23 08:53:08;;;;;;;55.13;23.37;;;9.70;60.30;;;;;;5056301;28;21359;-86
2022/01/23 08:55:35;;;;;;;32.07;17.93;;;9.90;60.10;;;;;;5039805;28;20555;-86
2022/01/23 08:58:02;;;;;;;34.60;16.93;;;10.00;58.80;;;;;;5075735;28;20559;-86
2022/01/23 09:00:30;;;;;;;34.77;18.90;;;9.80;60.00;;;;;;5072437;28;20460;-86
2022/01/23 09:02:57;;;;;;;35.27;19.40;;;9.80;60.30;;;;;;5074069;28;20538;-87
2022/01/23 09:05:27;;;;;;;43.00;23.30;;;9.70;60.70;;;;;;5052379;28;20456;-85
2022/01/23 09:07:54;;;;;;;35.17;20.40;;;9.80;60.60;;;;;;5071851;28;20453;-85
2022/01/23 09:10:25;;;;;;;30.50;17.80;;;9.80;60.40;;;;;;5072465;28;21331;-86
2022/01/23 09:13:08;;;;;;;31.33;15.27;;;9.90;60.40;;;;;;5073537;28;20504;-86
2022/01/23 09:15:35;;;;;;;24.37;15.27;;;10.00;59.30;;;;;;5074224;28;20472;-86
2022/01/23 09:18:03;;;;;;;21.97;13.13;;;10.10;59.00;;;;;;5071131;28;20872;-86
2022/01/23 09:20:31;;;;;;;28.90;16.47;;;10.30;58.70;;;;;;5072547;28;20459;-86
2022/01/23 09:22:58;;;;;;;34.40;15.77;;;10.40;58.20;;;;;;5052021;28;20479;-86
2022/01/23 09:25:25;;;;;;;28.57;15.83;;;10.10;59.10;;;;;;5061155;28;20539;-86
2022/01/23 09:27:52;;;;;;;39.87;20.77;;;10.10;59.30;;;;;;5051422;28;20906;-87
2022/01/23 09:30:20;;;;;;;42.37;23.90;;;10.30;59.00;;;;;;5070472;28;20503;-86
2022/01/23 09:32:49;;;;;;;48.27;31.70;;;10.30;58.80;;;;;;5069850;28;20488;-86
2022/01/23 09:35:16;;;;;;;36.93;24.80;;;10.30;58.70;;;;;;5067634;28;21284;-86
2022/01/23 09:37:46;;;;;;;32.87;20.30;;;10.20;59.20;;;;;;5068143;28;20466;-86
2022/01/23 09:40:14;;;;;;;28.63;17.83;;;10.00;59.80;;;;;;5071118;28;20452;-86
2022/01/23 09:42:47;;;;;;;30.80;19.70;;;10.00;59.70;;;;;;5066675;28;20597;-86
2022/01/23 09:45:15;;;;;;;32.90;19.60;;;10.30;59.40;;;;;;5070850;28;21275;-87
2022/01/23 09:47:42;;;;;;;32.80;17.43;;;10.40;58.80;;;;;;5070076;28;20458;-86
2022/01/23 09:50:12;;;;;;;36.13;17.63;;;10.40;58.70;;;;;;5066840;28;20510;-87
2022/01/23 09:52:40;;;;;;;33.00;18.30;;;10.40;58.60;;;;;;5068082;28;20456;-86
2022/01/23 09:55:11;;;;;;;40.40;17.10;;;10.40;58.50;;;;;;5068085;28;20503;-88
2022/01/23 09:57:41;;;;;;;30.67;15.80;;;10.60;58.50;;;;;;5065512;28;20482;-87
2022/01/23 10:00:11;;;;;;;27.40;14.70;;;10.60;58.00;;;;;;5068329;28;21277;-87
2022/01/23 10:02:42;;;;;;;22.57;13.33;;;10.70;58.00;;;;;;5068236;28;20491;-86
2022/01/23 10:05:10;;;;;;;32.53;16.00;;;10.50;58.40;;;;;;5067290;28;20971;-87
2022/01/23 10:07:38;;;;;;;22.30;13.43;;;10.40;58.70;;;;;;5069019;28;20459;-86
2022/01/23 10:10:12;;;;;;;20.13;12.40;;;10.50;58.60;;;;;;5070134;28;20444;-87
2022/01/23 10:12:43;;;;;;;22.63;11.70;;;10.60;58.00;;;;;;5066156;28;20995;-86
2022/01/23 10:15:11;;;;;;;23.60;11.60;;;10.70;57.70;;;;;;5068432;28;20841;-87
2022/01/23 10:17:39;;;;;;;18.20;9.83;;;10.60;57.70;;;;;;5069416;28;20978;-86
2022/01/23 10:20:09;;;;;;;24.30;11.17;;;10.50;57.70;;;;;;5069159;28;20459;-87
2022/01/23 10:22:37;;;;;;;21.03;9.37;;;10.50;57.60;;;;;;5067941;28;20515;-85
2022/01/23 10:25:09;;;;;;;17.00;9.97;;;10.40;57.70;;;;;;5069425;28;20471;-87
2022/01/23 10:28:01;;;;;;;18.60;10.10;;;10.50;57.80;;;;;;5070656;28;20463;-85
2022/01/23 10:30:31;;;;;;;20.50;9.50;;;10.80;57.60;;;;;;5052107;28;20460;-86
2022/01/23 10:33:00;;;;;;;20.07;10.57;;;11.00;57.10;;;;;;5074723;28;21012;-86
2022/01/23 10:35:28;;;;;;;22.30;9.60;;;10.90;56.40;;;;;;5067031;28;20562;-86
2022/01/23 10:37:55;;;;;;;16.73;10.47;;;10.80;56.50;;;;;;5067089;28;20463;-87
2022/01/23 10:40:30;;;;;;;13.93;9.27;;;10.90;56.60;;;;;;5067135;28;20471;-86
2022/01/23 10:48:40;;;;;;;16.90;9.73;;;11.10;55.90;;;;;;5071748;28;20463;-87
2022/01/23 10:51:16;;;;;;;26.10;10.17;;;11.00;55.90;;;;;;5069544;28;20476;-87
2022/01/23 10:54:16;;;;;;;20.60;13.10;;;11.10;56.20;;;;;;5071348;28;20482;-87
2022/01/23 10:57:06;;;;;;;15.43;7.80;;;11.20;55.70;;;;;;5055060;28;20472;-87
2022/01/23 10:59:43;;;;;;;9.93;7.37;;;11.20;55.70;;;;;;5069324;28;20784;-87
2022/01/23 11:02:12;;;;;;;11.70;6.20;;;11.10;55.30;;;;;;5070665;28;20455;-86
2022/01/23 11:04:58;;;;;;;11.63;6.80;;;11.10;55.30;;;;;;5074528;28;20479;-87
2022/01/23 11:07:26;;;;;;;5.40;3.70;;;11.20;55.00;;;;;;5053216;28;20526;-86
2022/01/23 11:10:02;;;;;;;5.57;4.60;;;11.10;53.50;;;;;;5071822;28;20445;-87
2022/01/23 11:18:03;;;;;;;6.73;3.80;;;11.20;53.40;;;;;;5070157;28;20464;-86
2022/01/23 11:20:33;;;;;;;3.97;3.13;;;11.20;53.10;;;;;;5070696;28;20469;-86
2022/01/23 11:23:14;;;;;;;4.80;3.30;;;11.30;53.20;;;;;;5071896;28;20479;-87
2022/01/23 11:25:43;;;;;;;8.47;3.63;;;11.40;53.00;;;;;;5070050;28;20549;-84
2022/01/23 11:28:10;;;;;;;5.33;3.20;;;11.50;52.40;;;;;;5067744;28;20460;-87
2022/01/23 11:30:41;;;;;;;3.90;2.97;;;11.50;52.10;;;;;;5064905;28;20551;-86
2022/01/23 11:33:10;;;;;;;4.83;2.93;;;11.40;51.10;;;;;;5052955;28;20533;-87
2022/01/23 11:35:38;;;;;;;4.90;3.97;;;11.50;51.40;;;;;;5074381;28;20571;-86
2022/01/23 11:38:11;;;;;;;5.43;3.67;;;11.50;51.60;;;;;;5075435;28;20468;-87
2022/01/23 11:50:36;;;;;;;3.80;3.27;;;11.50;51.20;;;;;;5073285;28;20835;-86
2022/01/23 11:54:59;;;;;;;4.70;2.67;;;11.90;50.40;;;;;;5054664;28;20488;-87
2022/01/23 11:57:42;;;;;;;3.23;2.57;;;12.00;50.40;;;;;;5075557;28;20468;-87
2022/01/23 12:00:13;;;;;;;6.50;2.80;;;12.20;50.30;;;;;;5073757;28;20449;-87
2022/01/23 12:02:43;;;;;;;5.63;2.70;;;12.60;51.10;;;;;;5074194;28;20498;-85
2022/01/23 12:05:25;;;;;;;3.87;2.60;;;12.60;49.00;;;;;;5074965;28;20480;-87
2022/01/23 12:08:34;;;;;;;3.70;2.20;;;12.80;48.90;;;;;;5074664;28;20539;-87
2022/01/23 12:17:10;;;;;;;6.10;2.50;;;12.80;47.80;;;;;;5077320;28;20554;-87
2022/01/23 12:19:51;;;;;;;4.37;2.13;;;12.70;48.50;;;;;;5076408;28;20569;-86
2022/01/23 12:22:32;;;;;;;4.30;2.30;;;12.50;47.90;;;;;;5075375;28;20452;-87
2022/01/23 12:25:15;;;;;;;3.80;2.33;;;11.90;48.00;;;;;;5074390;28;20467;-86
2022/01/23 12:27:42;;;;;;;6.13;3.07;;;11.70;48.60;;;;;;5074469;28;20442;-87
2022/01/23 12:30:14;;;;;;;3.30;2.43;;;11.60;49.10;;;;;;5071358;28;20963;-87
2022/01/23 12:32:41;;;;;;;2.53;1.90;;;11.40;48.60;;;;;;5073519;28;20874;-87
2022/01/23 12:35:11;;;;;;;2.40;1.77;;;11.40;47.90;;;;;;5076078;28;20999;-86
2022/01/23 12:38:08;;;;;;;1.90;1.53;;;11.60;47.90;;;;;;5075791;28;21022;-87
2022/01/23 12:40:41;;;;;;;4.03;2.37;;;11.50;46.30;;;;;;5072151;28;20846;-85
2022/01/23 12:43:10;;;;;;;3.30;1.93;;;11.30;46.20;;;;;;5071563;28;21251;-87
2022/01/23 12:45:53;;;;;;;1.27;1.03;;;11.40;46.40;;;;;;5072945;28;20475;-85
2022/01/23 12:48:39;;;;;;;1.17;1.07;;;11.70;46.50;;;;;;5073776;28;20944;-84
2022/01/23 12:51:10;;;;;;;1.33;1.23;;;11.80;45.90;;;;;;5070560;28;20977;-86
2022/01/23 12:53:38;;;;;;;1.90;1.70;;;11.70;46.10;;;;;;5076534;28;20499;-86
2022/01/23 12:56:08;;;;;;;1.37;1.20;;;11.70;47.50;;;;;;5073505;28;20553;-86
2022/01/23 12:58:36;;;;;;;1.80;1.53;;;11.70;46.50;;;;;;5072770;28;20449;-87
2022/01/23 13:01:07;;;;;;;2.97;1.90;;;11.80;47.10;;;;;;5071396;28;20455;-87
2022/01/23 13:03:36;;;;;;;5.33;1.87;;;12.00;47.60;;;;;;5075564;28;20479;-87
2022/01/23 13:06:06;;;;;;;1.90;1.33;;;12.00;46.70;;;;;;5075755;28;20437;-87
2022/01/23 13:08:45;;;;;;;1.47;1.10;;;11.80;45.70;;;;;;5071477;28;20514;-86
2022/01/23 13:11:49;;;;;;;1.97;1.80;;;11.70;46.20;;;;;;5072348;28;20947;-87
2022/01/23 13:14:08;;;;;;;6.50;3.37;;;11.80;47.10;;;;;;5075221;28;20524;-86
2022/01/23 13:16:40;;;;;;;5.17;3.30;;;11.80;46.80;;;;;;5074157;28;20468;-85
2022/01/23 13:19:44;;;;;;;3.60;3.23;;;11.90;47.40;;;;;;5056105;28;20847;-87
2022/01/23 13:30:32;;;;;;;3.23;2.43;;;11.60;46.90;;;;;;5051807;28;20573;-87
2022/01/23 13:33:03;;;;;;;1.70;1.30;;;11.60;47.60;;;;;;5073160;28;20541;-87
2022/01/23 13:35:36;;;;;;;1.73;1.60;;;11.60;47.00;;;;;;5071480;28;20463;-85
2022/01/23 13:38:09;;;;;;;2.37;2.10;;;11.50;47.50;;;;;;5074777;28;20467;-86
2022/01/23 13:40:40;;;;;;;4.70;2.37;;;11.50;47.60;;;;;;5076154;28;20749;-86
2022/01/23 13:51:35;;;;;;;3.97;3.20;;;11.20;47.80;;;;;;5073158;28;20503;-84
2022/01/23 13:59:55;;;;;;;3.17;2.30;;;11.30;47.40;;;;;;5048281;28;20572;-86
2022/01/23 14:02:25;;;;;;;5.80;3.77;;;11.30;47.60;;;;;;5072865;28;20456;-86
2022/01/23 14:04:54;;;;;;;4.20;3.80;;;11.40;48.10;;;;;;5072409;28;21095;-87
2022/01/23 14:07:22;;;;;;;5.03;4.53;;;11.60;48.40;;;;;;5069950;28;20936;-86
2022/01/23 14:09:50;;;;;;;2.53;2.30;;;11.60;47.80;;;;;;5078476;28;20542;-87
2022/01/23 14:12:21;;;;;;;5.13;3.27;;;11.60;47.60;;;;;;5073631;28;20444;-86
2022/01/23 14:14:54;;;;;;;4.97;3.60;;;11.60;48.10;;;;;;5076061;28;20575;-86
2022/01/23 14:17:23;;;;;;;6.13;3.60;;;11.70;48.00;;;;;;5070810;28;20525;-86
2022/01/23 14:20:01;;;;;;;3.87;3.17;;;11.70;48.30;;;;;;5076910;28;20462;-86
2022/01/23 14:22:29;;;;;;;8.60;2.90;;;11.80;48.10;;;;;;5074343;28;20456;-87
2022/01/23 14:25:08;;;;;;;3.03;2.73;;;11.90;48.60;;;;;;5075106;28;20482;-84
2022/01/23 14:27:36;;;;;;;7.03;3.20;;;11.90;47.80;;;;;;5072045;28;20589;-86
2022/01/23 14:30:06;;;;;;;6.67;3.00;;;11.80;47.40;;;;;;5073628;28;20546;-86
2022/01/23 14:32:41;;;;;;;3.90;2.83;;;11.60;47.20;;;;;;5060667;28;20487;-86
2022/01/23 14:35:12;;;;;;;2.53;1.83;;;11.30;47.30;;;;;;5058260;28;20451;-86
2022/01/23 14:37:39;;;;;;;1.87;1.27;;;11.30;47.80;;;;;;5070262;28;20991;-86
2022/01/23 14:40:15;;;;;;;2.40;1.13;;;11.20;47.30;;;;;;5073216;28;21172;-84
2022/01/23 14:43:01;;;;;;;2.80;2.07;;;11.00;48.00;;;;;;5067148;28;20552;-84
2022/01/23 14:45:29;;;;;;;7.93;4.33;;;10.90;48.10;;;;;;5072138;28;20465;-84
2022/01/23 14:47:57;;;;;;;10.20;5.30;;;11.00;49.00;;;;;;5072588;28;20836;-85
2022/01/23 14:50:26;;;;;;;8.07;4.07;;;11.10;48.50;;;;;;5069315;28;20464;-84
2022/01/23 14:52:53;;;;;;;3.83;3.20;;;11.20;47.80;;;;;;5068106;28;20496;-84
2022/01/23 14:55:21;;;;;;;1.43;1.33;;;11.10;48.10;;;;;;5073697;28;21226;-83
2022/01/23 14:57:49;;;;;;;2.30;2.10;;;11.00;47.10;;;;;;5074076;28;20482;-84
2022/01/23 15:00:17;;;;;;;2.20;2.00;;;11.00;47.70;;;;;;5055523;28;20526;-85
2022/01/23 15:02:45;;;;;;;1.60;1.50;;;11.00;47.80;;;;;;5074806;28;21005;-84
2022/01/23 15:05:12;;;;;;;1.50;1.40;;;10.90;47.70;;;;;;5072118;28;20514;-85
2022/01/23 15:07:41;;;;;;;2.00;1.80;;;11.00;47.80;;;;;;5074283;28;20455;-85
2022/01/23 15:10:10;;;;;;;2.63;2.20;;;11.00;47.70;;;;;;5077659;28;20538;-84
2022/01/23 15:12:38;;;;;;;2.00;1.90;;;11.10;48.00;;;;;;5076373;28;20449;-84
2022/01/23 15:15:06;;;;;;;1.93;1.70;;;11.10;47.60;;;;;;5072999;28;20459;-84
2022/01/23 15:17:36;;;;;;;2.30;2.10;;;11.20;47.90;;;;;;5075746;28;20587;-86
2022/01/23 15:20:03;;;;;;;3.53;2.30;;;11.20;47.60;;;;;;5076700;28;21060;-85
2022/01/23 15:22:30;;;;;;;2.70;2.13;;;11.20;47.40;;;;;;5075475;28;21056;-86
2022/01/23 15:24:58;;;;;;;3.60;2.10;;;11.30;47.40;;;;;;5076453;28;20452;-86
2022/01/23 15:27:25;;;;;;;2.83;2.20;;;11.30;47.70;;;;;;5073468;28;20936;-86
2022/01/23 15:29:52;;;;;;;2.50;2.30;;;11.50;48.30;;;;;;5076175;28;20456;-86
2022/01/23 15:32:20;;;;;;;1.80;1.70;;;11.50;47.50;;;;;;5076677;28;20455;-86
2022/01/23 15:34:49;;;;;;;2.77;2.40;;;11.40;46.90;;;;;;5076748;28;20476;-86
2022/01/23 15:37:17;;;;;;;8.30;3.60;;;11.30;47.20;;;;;;5059536;28;20836;-86
2022/01/23 15:39:45;;;;;;;3.40;3.10;;;11.40;48.00;;;;;;5074556;28;20464;-86
2022/01/23 15:42:13;;;;;;;4.67;3.40;;;11.50;48.40;;;;;;5073844;28;20968;-86
2022/01/23 15:44:40;;;;;;;4.00;3.30;;;11.60;48.70;;;;;;5076007;28;20483;-86